createdAt,value
2018-05-04T00:02:02.941Z,101730.47
2018-05-04T00:04:30.525Z,101736.09
2018-05-04T00:06:58.089Z,101737.59
2018-05-04T00:09:25.618Z,101741.56
2018-05-04T00:11:53.282Z,101741.98
2018-05-04T00:14:20.917Z,101745.50
2018-05-04T00:16:48.577Z,101742.80
2018-05-04T00:19:17.102Z,101736.09
2018-05-04T00:21:44.637Z,101739.20
2018-05-04T00:24:12.186Z,101740.45
2018-05-04T00:26:39.789Z,101742.80
2018-05-04T00:29:07.302Z,101745.84
2018-05-04T00:31:34.873Z,101745.00
2018-05-04T00:34:02.439Z,101743.58
2018-05-04T00:36:29.977Z,101751.90
2018-05-04T00:38:57.592Z,101751.39
2018-05-04T00:41:25.099Z,101750.74
2018-05-04T00:43:52.658Z,101757.36
2018-05-04T00:46:20.224Z,101762.64
2018-05-04T00:48:47.851Z,101767.34
2018-05-04T00:51:15.418Z,101766.83
2018-05-04T00:53:54.784Z,101775.13
2018-05-04T00:56:22.694Z,101774.45
2018-05-04T00:58:50.472Z,101781.46
2018-05-04T01:01:18.019Z,101784.16
2018-05-04T01:03:45.558Z,101785.58
2018-05-04T01:06:13.068Z,101792.88
2018-05-04T01:08:40.643Z,101785.00
2018-05-04T01:11:08.583Z,101795.89
2018-05-04T01:13:36.445Z,101791.05
2018-05-04T01:16:04.095Z,101788.61
2018-05-04T01:18:31.684Z,101783.92
2018-05-04T01:20:59.546Z,101790.46
2018-05-04T01:23:27.118Z,101789.70
2018-05-04T01:25:54.705Z,101791.54
2018-05-04T01:28:22.280Z,101795.80
2018-05-04T01:30:49.901Z,101791.02
2018-05-04T01:33:17.494Z,101795.55
2018-05-04T01:35:45.062Z,101801.33
2018-05-04T01:38:12.633Z,101807.34
2018-05-04T01:40:40.227Z,101806.36
2018-05-04T01:43:08.100Z,101810.53
2018-05-04T01:45:35.728Z,101817.07
2018-05-04T01:48:03.357Z,101815.81
2018-05-04T01:50:30.931Z,101819.67
2018-05-04T01:52:58.519Z,101816.98
2018-05-04T01:55:26.078Z,101814.55
2018-05-04T01:57:53.625Z,101820.06
2018-05-04T02:00:21.263Z,101820.41
2018-05-04T02:02:48.849Z,101819.38
2018-05-04T02:05:16.477Z,101823.55
2018-05-04T02:07:44.144Z,101819.81
2018-05-04T02:10:12.088Z,101824.66
2018-05-04T02:12:39.960Z,101826.48
2018-05-04T02:15:07.567Z,101824.03
2018-05-04T02:17:35.137Z,101830.23
2018-05-04T02:20:02.714Z,101825.36
2018-05-04T02:22:30.334Z,101822.26
2018-05-04T02:24:57.913Z,101822.76
2018-05-04T02:27:25.517Z,101822.23
2018-05-04T02:29:53.120Z,101823.07
2018-05-04T02:32:20.736Z,101831.86
2018-05-04T02:34:48.301Z,101829.84
2018-05-04T02:37:15.896Z,101832.20
2018-05-04T02:39:43.448Z,101832.67
2018-05-04T02:42:11.018Z,101828.42
2018-05-04T02:44:38.617Z,101832.09
2018-05-04T02:47:06.250Z,101834.69
2018-05-04T02:49:33.833Z,101842.03
2018-05-04T02:52:01.449Z,101848.65
2018-05-04T02:54:29.014Z,101846.20
2018-05-04T02:56:56.621Z,101845.78
2018-05-04T02:59:24.253Z,101841.35
2018-05-04T03:01:51.831Z,101843.95
2018-05-04T03:04:19.389Z,101850.91
2018-05-04T03:06:47.015Z,101844.30
2018-05-04T03:09:14.589Z,101833.67
2018-05-04T03:11:42.166Z,101839.52
2018-05-04T03:14:09.784Z,101846.09
2018-05-04T03:16:37.657Z,101852.33
2018-05-04T03:19:05.215Z,101855.91
2018-05-04T03:21:32.796Z,101850.75
2018-05-04T03:24:00.377Z,101855.22
2018-05-04T03:26:27.945Z,101849.28
2018-05-04T03:28:55.521Z,101853.98
2018-05-04T03:31:23.098Z,101853.30
2018-05-04T03:33:50.998Z,101851.88
2018-05-04T03:36:18.584Z,101844.70
2018-05-04T03:38:46.150Z,101856.46
2018-05-04T03:41:13.713Z,101855.48
2018-05-04T03:43:41.296Z,101854.36
2018-05-04T03:46:10.023Z,101863.70
2018-05-04T03:48:37.588Z,101851.91
2018-05-04T03:51:05.185Z,101853.75
2018-05-04T03:53:32.744Z,101851.42
2018-05-04T03:56:00.574Z,101848.09
2018-05-04T03:58:40.136Z,101837.56
2018-05-04T04:01:19.530Z,101842.41
2018-05-04T04:03:59.018Z,101841.50
2018-05-04T04:06:26.596Z,101845.00
2018-05-04T04:08:54.159Z,101845.45
2018-05-04T04:11:21.785Z,101842.33
2018-05-04T04:13:49.354Z,101848.39
2018-05-04T04:16:16.924Z,101837.30
2018-05-04T04:18:44.531Z,101830.58
2018-05-04T04:21:12.094Z,101834.17
2018-05-04T04:23:39.662Z,101835.64
2018-05-04T04:26:07.287Z,101832.12
2018-05-04T04:28:34.843Z,101829.95
2018-05-04T04:31:02.407Z,101839.16
2018-05-04T04:33:30.342Z,101844.28
2018-05-04T04:35:57.965Z,101836.95
2018-05-04T04:38:25.527Z,101832.49
2018-05-04T04:40:53.431Z,101832.18
2018-05-04T04:43:21.298Z,101826.57
2018-05-04T04:45:48.870Z,101827.10
2018-05-04T04:48:16.453Z,101832.11
2018-05-04T04:50:44.009Z,101834.36
2018-05-04T04:53:11.628Z,101842.23
2018-05-04T04:55:39.245Z,101842.31
2018-05-04T04:58:06.832Z,101840.63
2018-05-04T05:00:34.387Z,101845.52
2018-05-04T05:03:02.398Z,101848.16
2018-05-04T05:05:29.969Z,101846.84
2018-05-04T05:07:57.829Z,101851.94
2018-05-04T05:10:25.406Z,101862.41
2018-05-04T05:12:53.055Z,101861.19
2018-05-04T05:15:20.557Z,101866.34
2018-05-04T05:17:48.141Z,101864.63
2018-05-04T05:20:15.703Z,101871.81
2018-05-04T05:22:43.533Z,101872.28
2018-05-04T05:25:11.161Z,101871.89
2018-05-04T05:27:39.030Z,101865.13
2018-05-04T05:30:06.841Z,101866.47
2018-05-04T05:32:34.627Z,101871.58
2018-05-04T05:35:02.192Z,101878.55
2018-05-04T05:37:29.754Z,101884.16
2018-05-04T05:39:57.346Z,101878.84
2018-05-04T05:42:25.265Z,101878.02
2018-05-04T05:44:52.797Z,101875.03
2018-05-04T05:47:20.371Z,101877.20
2018-05-04T05:49:47.937Z,101885.50
2018-05-04T05:52:15.487Z,101888.78
2018-05-04T05:54:43.113Z,101885.84
2018-05-04T05:57:10.667Z,101893.82
2018-05-04T05:59:38.228Z,101898.86
2018-05-04T06:02:05.850Z,101898.03
2018-05-04T06:04:33.408Z,101900.30
2018-05-04T06:07:01.235Z,101902.71
2018-05-04T06:09:28.865Z,101906.53
2018-05-04T06:11:56.553Z,101905.78
2018-05-04T06:14:24.167Z,101915.44
2018-05-04T06:16:51.827Z,101912.74
2018-05-04T06:19:19.389Z,101916.97
2018-05-04T06:21:47.313Z,101912.24
2018-05-04T06:24:15.188Z,101914.69
2018-05-04T06:26:42.751Z,101923.27
2018-05-04T06:29:12.558Z,101920.36
2018-05-04T06:31:40.146Z,101920.61
2018-05-04T06:34:07.984Z,101921.53
2018-05-04T06:36:35.557Z,101928.04
2018-05-04T06:39:03.524Z,101927.33
2018-05-04T06:41:31.385Z,101923.72
2018-05-04T06:43:59.255Z,101927.16
2018-05-04T06:46:26.942Z,101920.94
2018-05-04T06:48:54.502Z,101923.52
2018-05-04T06:51:22.344Z,101933.84
2018-05-04T06:53:49.942Z,101933.38
2018-05-04T06:56:17.536Z,101938.73
2018-05-04T06:58:45.102Z,101942.04
2018-05-04T07:01:13.099Z,101941.42
2018-05-04T07:03:40.880Z,101946.14
2018-05-04T07:06:08.738Z,101947.48
2018-05-04T07:08:36.368Z,101946.34
2018-05-04T07:11:03.924Z,101949.45
2018-05-04T07:13:31.504Z,101945.34
2018-05-04T07:15:59.101Z,101949.85
2018-05-04T07:18:27.329Z,101949.20
2018-05-04T07:20:55.222Z,101951.98
2018-05-04T07:23:22.797Z,101950.60
2018-05-04T07:25:50.424Z,101946.91
2018-05-04T07:28:18.514Z,101949.05
2018-05-04T07:30:46.394Z,101945.09
2018-05-04T07:33:13.960Z,101949.94
2018-05-04T07:35:41.559Z,101954.36
2018-05-04T07:38:09.222Z,101954.66
2018-05-04T07:40:36.786Z,101955.73
2018-05-04T07:43:05.504Z,101944.64
2018-05-04T07:45:33.061Z,101961.65
2018-05-04T07:48:00.949Z,101962.20
2018-05-04T07:50:28.813Z,101959.89
2018-05-04T07:52:56.411Z,101963.86
2018-05-04T07:55:23.957Z,101957.23
2018-05-04T07:57:51.577Z,101951.48
2018-05-04T08:00:19.169Z,101951.32
2018-05-04T08:02:47.057Z,101950.20
2018-05-04T08:05:14.614Z,101947.30
2018-05-04T08:07:42.179Z,101942.95
2018-05-04T08:10:09.750Z,101949.81
2018-05-04T08:12:37.308Z,101957.53
2018-05-04T08:15:04.964Z,101956.80
2018-05-04T08:17:32.531Z,101949.05
2018-05-04T08:20:00.132Z,101946.34
2018-05-04T08:22:27.725Z,101950.39
2018-05-04T08:24:55.322Z,101952.52
2018-05-04T08:27:23.181Z,101955.17
2018-05-04T08:29:50.789Z,101945.96
2018-05-04T08:32:18.365Z,101946.62
2018-05-04T08:34:46.860Z,101950.41
2018-05-04T08:37:14.439Z,101948.63
2018-05-04T08:39:42.402Z,101943.06
2018-05-04T08:42:09.970Z,101949.72
2018-05-04T08:44:37.554Z,101952.82
2018-05-04T08:47:05.144Z,101951.25
2018-05-04T08:49:32.699Z,101944.41
2018-05-04T08:52:00.383Z,101942.33
2018-05-04T08:54:28.148Z,101940.23
2018-05-04T08:56:55.823Z,101941.28
2018-05-04T08:59:23.419Z,101928.84
2018-05-04T09:01:50.988Z,101923.79
2018-05-04T09:04:18.558Z,101924.30
2018-05-04T09:06:46.157Z,101933.46
2018-05-04T09:09:13.704Z,101933.80
2018-05-04T09:11:41.258Z,101932.94
2018-05-04T09:14:08.856Z,101931.16
2018-05-04T09:16:36.469Z,101926.70
2018-05-04T09:19:04.009Z,101930.74
2018-05-04T09:21:31.582Z,101925.21
2018-05-04T09:23:59.152Z,101929.66
2018-05-04T09:26:26.952Z,101929.86
2018-05-04T09:28:54.611Z,101925.72
2018-05-04T09:31:22.162Z,101925.37
2018-05-04T09:33:50.053Z,101917.48
2018-05-04T09:36:17.641Z,101915.69
2018-05-04T09:38:45.202Z,101920.03
2018-05-04T09:41:12.813Z,101916.56
2018-05-04T09:43:40.406Z,101922.91
2018-05-04T09:46:07.978Z,101923.27
2018-05-04T09:48:35.585Z,101916.64
2018-05-04T09:51:03.166Z,101920.22
2018-05-04T09:53:30.749Z,101940.98
2018-05-04T09:55:58.328Z,101926.78
2018-05-04T09:58:25.913Z,101929.69
2018-05-04T10:00:53.489Z,101928.55
2018-05-04T10:03:21.096Z,101916.73
2018-05-04T10:05:48.681Z,101918.44
2018-05-04T10:08:16.231Z,101914.62
2018-05-04T10:10:44.720Z,101905.72
2018-05-04T10:13:12.296Z,101905.27
2018-05-04T10:15:40.124Z,101917.39
2018-05-04T10:18:07.680Z,101911.20
2018-05-04T10:20:35.269Z,101905.88
2018-05-04T10:23:02.887Z,101907.63
2018-05-04T10:25:30.476Z,101912.48
2018-05-04T10:27:58.338Z,101905.49
2018-05-04T10:30:25.892Z,101901.69
2018-05-04T10:32:53.459Z,101883.08
2018-05-04T10:35:21.125Z,101894.42
2018-05-04T10:37:48.686Z,101898.25
2018-05-04T10:40:16.248Z,101900.86
2018-05-04T10:42:43.826Z,101906.11
2018-05-04T10:45:11.467Z,101900.09
2018-05-04T10:47:39.338Z,101890.94
2018-05-04T10:50:06.960Z,101900.33
2018-05-04T10:52:34.545Z,101891.95
2018-05-04T10:55:02.125Z,101895.83
2018-05-04T10:57:29.745Z,101895.75
2018-05-04T10:59:57.324Z,101892.42
2018-05-04T11:02:25.135Z,101897.63
2018-05-04T11:04:52.769Z,101901.99
2018-05-04T11:07:20.332Z,101891.64
2018-05-04T11:09:47.887Z,101889.27
2018-05-04T11:12:15.477Z,101893.32
2018-05-04T11:14:43.020Z,101894.97
2018-05-04T11:17:10.601Z,101890.27
2018-05-04T11:19:38.184Z,101890.63
2018-05-04T11:22:05.746Z,101884.29
2018-05-04T11:24:33.292Z,101884.75
2018-05-04T11:27:00.894Z,101880.08
2018-05-04T11:29:28.449Z,101883.47
2018-05-04T11:31:56.887Z,101888.29
2018-05-04T11:34:24.464Z,101875.97
2018-05-04T11:36:52.029Z,101882.10
2018-05-04T11:39:19.583Z,101886.92
2018-05-04T11:41:47.233Z,101884.06
2018-05-04T11:44:14.884Z,101880.50
2018-05-04T11:46:42.513Z,101883.92
2018-05-04T11:49:10.128Z,101883.72
2018-05-04T11:51:37.675Z,101883.11
2018-05-04T11:54:05.253Z,101873.59
2018-05-04T11:56:32.856Z,101884.52
2018-05-04T11:59:00.450Z,101875.45
2018-05-04T12:01:28.018Z,101873.28
2018-05-04T12:03:55.678Z,101873.83
2018-05-04T12:06:23.530Z,101876.81
2018-05-04T12:08:51.134Z,101875.44
2018-05-04T12:11:18.766Z,101874.37
2018-05-04T12:13:46.350Z,101880.64
2018-05-04T12:16:14.008Z,101878.42
2018-05-04T12:18:41.541Z,101868.94
2018-05-04T12:21:09.117Z,101871.94
2018-05-04T12:23:36.673Z,101880.84
2018-05-04T12:26:04.262Z,101880.03
2018-05-04T12:28:31.833Z,101877.02
2018-05-04T12:30:59.395Z,101871.13
2018-05-04T12:33:26.985Z,101873.55
2018-05-04T12:35:54.556Z,101876.05
2018-05-04T12:38:22.118Z,101871.48
2018-05-04T12:40:49.721Z,101871.70
2018-05-04T12:43:17.278Z,101870.81
2018-05-04T12:45:44.853Z,101875.71
2018-05-04T12:48:12.705Z,101872.33
2018-05-04T12:50:40.263Z,101870.47
2018-05-04T12:53:07.812Z,101871.31
2018-05-04T12:55:35.451Z,101874.46
2018-05-04T12:58:03.033Z,101872.91
2018-05-04T13:00:30.615Z,101875.23
2018-05-04T13:02:58.272Z,101867.70
2018-05-04T13:05:25.835Z,101868.66
2018-05-04T13:07:53.407Z,101869.70
2018-05-04T13:10:21.005Z,101868.81
2018-05-04T13:12:48.559Z,101867.17
2018-05-04T13:15:16.115Z,101859.01
2018-05-04T13:17:43.777Z,101863.97
2018-05-04T13:20:11.312Z,101851.67
2018-05-04T13:22:38.925Z,101858.06
2018-05-04T13:25:06.567Z,101854.53
2018-05-04T13:27:34.126Z,101857.63
2018-05-04T13:30:01.943Z,101843.00
2018-05-04T13:32:29.628Z,101847.14
2018-05-04T13:34:57.189Z,101846.30
2018-05-04T13:37:24.741Z,101844.79
2018-05-04T13:39:52.314Z,101839.03
2018-05-04T13:42:19.900Z,101834.23
2018-05-04T13:44:47.552Z,101832.47
2018-05-04T13:47:15.169Z,101836.19
2018-05-04T13:49:42.731Z,101832.18
2018-05-04T13:52:10.294Z,101825.12
2018-05-04T13:54:37.892Z,101832.94
2018-05-04T13:57:05.444Z,101826.04
2018-05-04T13:59:33.215Z,101822.10
2018-05-04T14:02:00.842Z,101819.77
2018-05-04T14:04:28.522Z,101819.18
2018-05-04T14:06:56.266Z,101815.80
2018-05-04T14:09:23.863Z,101812.89
2018-05-04T14:11:51.611Z,101816.53
2018-05-04T14:14:19.185Z,101818.45
2018-05-04T14:16:46.802Z,101817.58
2018-05-04T14:19:14.431Z,101814.05
2018-05-04T14:21:42.012Z,101820.30
2018-05-04T14:24:09.708Z,101822.22
2018-05-04T14:26:37.377Z,101824.50
2018-05-04T14:29:04.941Z,101823.37
2018-05-04T14:31:32.557Z,101829.16
2018-05-04T14:34:00.128Z,101825.53
2018-05-04T14:36:27.694Z,101829.73
2018-05-04T14:38:55.303Z,101838.05
2018-05-04T14:41:22.898Z,101833.16
2018-05-04T14:43:50.449Z,101831.80
2018-05-04T14:46:18.040Z,101825.20
2018-05-04T14:48:45.617Z,101817.05
2018-05-04T14:51:13.187Z,101828.00
2018-05-04T14:53:40.792Z,101823.05
2018-05-04T14:56:09.078Z,101821.98
2018-05-04T14:58:36.730Z,101831.69
2018-05-04T15:01:04.305Z,101824.73
2018-05-04T15:03:31.921Z,101823.75
2018-05-04T15:05:59.577Z,101823.43
2018-05-04T15:08:27.155Z,101834.39
2018-05-04T15:10:54.718Z,101824.11
2018-05-04T15:13:22.253Z,101828.53
2018-05-04T15:15:50.501Z,101828.45
2018-05-04T15:18:18.058Z,101834.68
2018-05-04T15:20:45.618Z,101835.34
2018-05-04T15:23:13.209Z,101829.25
2018-05-04T15:25:40.842Z,101837.88
2018-05-04T15:28:08.408Z,101836.73
2018-05-04T15:30:35.989Z,101837.23
2018-05-04T15:33:03.575Z,101836.91
2018-05-04T15:35:31.123Z,101839.94
2018-05-04T15:37:59.556Z,101846.67
2018-05-04T15:40:27.123Z,101852.88
2018-05-04T15:42:54.740Z,101848.05
2018-05-04T15:45:22.336Z,101852.77
2018-05-04T15:47:49.906Z,101846.92
2018-05-04T15:50:22.965Z,101847.67
2018-05-04T15:52:50.541Z,101854.70
2018-05-04T15:55:18.104Z,101855.36
2018-05-04T15:57:45.707Z,101855.45
2018-05-04T16:00:13.256Z,101848.50
2018-05-04T16:02:40.807Z,101849.65
2018-05-04T16:05:08.696Z,101851.52
2018-05-04T16:07:36.318Z,101852.16
2018-05-04T16:10:04.126Z,101847.06
2018-05-04T16:12:31.812Z,101851.15
2018-05-04T16:14:59.372Z,101851.94
2018-05-04T16:17:27.393Z,101849.96
2018-05-04T16:19:55.298Z,101850.73
2018-05-04T16:22:22.898Z,101852.61
2018-05-04T16:24:50.595Z,101851.94
2018-05-04T16:27:18.198Z,101843.02
2018-05-04T16:29:45.825Z,101844.47
2018-05-04T16:32:13.378Z,101840.72
2018-05-04T16:34:40.974Z,101844.89
2018-05-04T16:37:08.790Z,101842.23
2018-05-04T16:39:36.601Z,101855.16
2018-05-04T16:42:04.218Z,101846.36
2018-05-04T16:44:31.780Z,101842.41
2018-05-04T16:47:04.946Z,101846.30
2018-05-04T16:49:32.491Z,101855.12
2018-05-04T16:52:00.443Z,101851.58
2018-05-04T16:54:28.030Z,101844.29
2018-05-04T16:56:55.656Z,101851.56
2018-05-04T16:59:23.241Z,101848.98
2018-05-04T17:01:50.940Z,101852.44
2018-05-04T17:04:18.545Z,101851.34
2018-05-04T17:06:46.173Z,101856.44
2018-05-04T17:09:13.818Z,101858.14
2018-05-04T17:11:41.395Z,101867.28
2018-05-04T17:14:08.953Z,101868.77
2018-05-04T17:16:36.561Z,101869.06
2018-05-04T17:19:04.115Z,101870.70
2018-05-04T17:21:31.702Z,101877.98
2018-05-04T17:23:59.311Z,101884.86
2018-05-04T17:26:26.886Z,101879.45
2018-05-04T17:28:54.458Z,101885.29
2018-05-04T17:31:22.043Z,101888.41
2018-05-04T17:33:49.599Z,101886.83
2018-05-04T17:36:17.662Z,101887.34
2018-05-04T17:38:45.261Z,101890.16
2018-05-04T17:41:12.817Z,101890.39
2018-05-04T17:43:40.375Z,101894.44
2018-05-04T17:46:07.958Z,101900.17
2018-05-04T17:48:35.552Z,101897.55
2018-05-04T17:51:03.544Z,101904.50
2018-05-04T17:53:31.403Z,101906.90
2018-05-04T17:55:58.991Z,101910.86
2018-05-04T17:58:26.562Z,101909.16
2018-05-04T18:00:54.504Z,101915.09
2018-05-04T18:03:22.085Z,101915.26
2018-05-04T18:05:49.876Z,101918.16
2018-05-04T18:08:17.494Z,101925.55
2018-05-04T18:10:45.088Z,101921.02
2018-05-04T18:13:12.674Z,101916.03
2018-05-04T18:15:40.293Z,101917.77
2018-05-04T18:18:07.848Z,101929.64
2018-05-04T18:20:35.442Z,101925.84
2018-05-04T18:23:03.095Z,101925.30
2018-05-04T18:25:30.670Z,101932.28
2018-05-04T18:27:58.593Z,101934.24
2018-05-04T18:30:26.176Z,101930.58
2018-05-04T18:32:53.841Z,101931.05
2018-05-04T18:35:21.679Z,101936.13
2018-05-04T18:37:49.254Z,101937.16
2018-05-04T18:40:16.805Z,101941.22
2018-05-04T18:42:44.599Z,101946.20
2018-05-04T18:45:12.290Z,101950.36
2018-05-04T18:47:39.893Z,101955.11
2018-05-04T18:50:07.761Z,101956.64
2018-05-04T18:52:35.637Z,101960.09
2018-05-04T18:55:03.202Z,101963.64
2018-05-04T18:57:30.780Z,101975.79
2018-05-04T18:59:58.535Z,101981.19
2018-05-04T19:02:31.641Z,101986.25
2018-05-04T19:04:59.680Z,101990.63
2018-05-04T19:07:27.246Z,101992.81
2018-05-04T19:09:54.809Z,101992.67
2018-05-04T19:12:22.467Z,102000.05
2018-05-04T19:14:50.026Z,102002.70
2018-05-04T19:17:17.593Z,102008.38
2018-05-04T19:19:45.175Z,102009.48
2018-05-04T19:22:13.017Z,102011.70
2018-05-04T19:24:40.590Z,102017.52
2018-05-04T19:27:08.168Z,102021.60
2018-05-04T19:29:36.115Z,102026.27
2018-05-04T19:32:03.675Z,102028.28
2018-05-04T19:34:31.354Z,102028.57
2018-05-04T19:36:59.226Z,102034.08
2018-05-04T19:39:26.780Z,102033.05
2018-05-04T19:41:54.632Z,102030.01
2018-05-04T19:44:22.216Z,102036.67
2018-05-04T19:46:49.865Z,102047.49
2018-05-04T19:49:17.493Z,102053.28
2018-05-04T19:51:45.477Z,102050.81
2018-05-04T19:54:13.069Z,102059.83
2018-05-04T19:56:40.716Z,102052.64
2018-05-04T19:59:08.303Z,102061.14
2018-05-04T20:01:35.889Z,102059.64
2018-05-04T20:04:03.571Z,102074.86
2018-05-04T20:06:31.151Z,102076.83
2018-05-04T20:08:58.738Z,102073.05
2018-05-04T20:11:26.332Z,102071.88
2018-05-04T20:13:53.937Z,102082.55
2018-05-04T20:16:21.560Z,102090.23
2018-05-04T20:18:49.246Z,102081.55
2018-05-04T20:21:17.401Z,102087.11
2018-05-04T20:23:45.395Z,102087.30
2018-05-04T20:26:13.652Z,102096.64
2018-05-04T20:28:41.312Z,102104.25
2018-05-04T20:31:08.908Z,102105.39
2018-05-04T20:33:36.797Z,102101.73
2018-05-04T20:36:04.596Z,102097.11
2018-05-04T20:38:32.173Z,102101.66
2018-05-04T20:40:59.802Z,102110.00
2018-05-04T20:43:27.604Z,102109.24
2018-05-04T20:45:55.240Z,102108.44
2018-05-04T20:48:23.168Z,102113.78
2018-05-04T20:50:50.819Z,102119.08
2018-05-04T20:53:18.408Z,102124.04
2018-05-04T20:55:46.663Z,102117.86
2018-05-04T20:58:14.442Z,102124.30
2018-05-04T21:00:42.078Z,102125.85
2018-05-04T21:03:09.818Z,102120.06
2018-05-04T21:05:37.453Z,102125.60
2018-05-04T21:08:05.048Z,102122.75
2018-05-04T21:10:33.275Z,102122.66
2018-05-04T21:13:00.908Z,102129.33
2018-05-04T21:15:28.471Z,102134.16
2018-05-04T21:17:56.051Z,102132.22
2018-05-04T21:20:23.662Z,102131.23
2018-05-04T21:22:51.395Z,102135.16
2018-05-04T21:25:18.976Z,102136.05
2018-05-04T21:27:46.559Z,102131.38
2018-05-04T21:30:14.363Z,102133.70
2018-05-04T21:32:41.937Z,102132.47
2018-05-04T21:35:09.516Z,102137.91
2018-05-04T21:37:37.091Z,102139.34
2018-05-04T21:40:04.733Z,102141.69
2018-05-04T21:42:32.310Z,102147.31
2018-05-04T21:44:59.963Z,102149.69
2018-05-04T21:47:27.558Z,102150.09
2018-05-04T21:49:55.165Z,102152.61
2018-05-04T21:52:22.742Z,102155.05
2018-05-04T21:54:50.327Z,102153.70
2018-05-04T21:57:17.958Z,102153.64
2018-05-04T21:59:45.524Z,102154.48
2018-05-04T22:02:13.473Z,102157.46
2018-05-04T22:04:41.082Z,102161.91
2018-05-04T22:07:08.768Z,102161.92
2018-05-04T22:09:36.774Z,102164.27
2018-05-04T22:12:04.341Z,102161.23
2018-05-04T22:14:31.941Z,102162.70
2018-05-04T22:16:59.559Z,102168.39
2018-05-04T22:19:27.128Z,102172.95
2018-05-04T22:21:54.720Z,102174.95
2018-05-04T22:24:22.336Z,102177.97
2018-05-04T22:26:49.885Z,102176.28
2018-05-04T22:29:17.765Z,102175.47
2018-05-04T22:31:45.395Z,102183.62
2018-05-04T22:34:13.009Z,102190.49
2018-05-04T22:36:40.608Z,102188.12
2018-05-04T22:39:08.242Z,102195.06
2018-05-04T22:41:35.803Z,102195.23
2018-05-04T22:44:03.440Z,102191.78
2018-05-04T22:46:31.053Z,102193.45
2018-05-04T22:48:58.922Z,102194.73
2018-05-04T22:51:26.479Z,102193.45
2018-05-04T22:53:54.051Z,102193.45
2018-05-04T22:56:21.855Z,102199.67
2018-05-04T22:58:49.423Z,102198.75
2018-05-04T23:01:17.388Z,102207.04
2018-05-04T23:03:44.959Z,102203.28
2018-05-04T23:06:12.531Z,102202.94
2018-05-04T23:08:40.139Z,102199.81
2018-05-04T23:11:07.747Z,102197.39
2018-05-04T23:13:35.311Z,102204.61
2018-05-04T23:16:02.936Z,102205.34
2018-05-04T23:18:30.489Z,102199.23
2018-05-04T23:20:58.147Z,102204.86
2018-05-04T23:23:25.678Z,102204.41
2018-05-04T23:25:53.278Z,102202.34
2018-05-04T23:28:20.899Z,102199.87
2018-05-04T23:30:48.491Z,102198.61
2018-05-04T23:33:16.076Z,102199.59
2018-05-04T23:35:43.652Z,102199.59
2018-05-04T23:38:11.228Z,102205.15
2018-05-04T23:40:38.808Z,102208.06
2018-05-04T23:43:06.366Z,102208.30
2018-05-04T23:45:33.952Z,102211.85
2018-05-04T23:48:01.508Z,102219.03
2018-05-04T23:50:29.113Z,102221.64
2018-05-04T23:52:56.752Z,102223.40
2018-05-04T23:55:24.753Z,102227.81
2018-05-04T23:57:52.352Z,102228.42
